Kickapoo, Louisiana
Current Conditions -  °F | °C
As of 2:56 AM on Friday 28 Nov 2014 (Local Time) from KSHV Reporting Station
Clear Clear  
Wind Chill: 33°   Ceiling: Unl
Heat Index: 37°   Visibility: 10mi
Dew Point: 32°   Wind: 5mph
Humidity: 82%   Direction: 140°SE
Pressure: 30.39"   Gusts: NA
Location:  32.1925°N, 93.8233°W
Report Text: KSHV 280856Z 14004KT 10SM CLR 03/00 A3039 RMK AO2 SLP290 T00280000 56010
Loading
Personal Weather Stations






























Interactive Weather Map New forecast layout! Learn more

10-Day Weather Forecast

Advertisements
Track Severe Weather on mobile